sensor_id;sensor_type;location;lat;lon;timestamp;pressure;altitude;pressure_sealevel;temperature;humidity
15487;BME280;7845;53.698;10.078;2023-06-05T00:00:05;102071.06;;;16.93;100.00
15487;BME280;7845;53.698;10.078;2023-06-05T00:02:32;102075.53;;;16.87;100.00
15487;BME280;7845;53.698;10.078;2023-06-05T00:04:57;102075.44;;;16.96;100.00
15487;BME280;7845;53.698;10.078;2023-06-05T00:07:23;102071.13;;;16.89;100.00
15487;BME280;7845;53.698;10.078;2023-06-05T00:09:48;102081.84;;;16.75;100.00
15487;BME280;7845;53.698;10.078;2023-06-05T00:12:13;102077.56;;;16.64;100.00
15487;BME280;7845;53.698;10.078;2023-06-05T00:14:42;102092.25;;;16.87;100.00
15487;BME280;7845;53.698;10.078;2023-06-05T00:17:07;102092.28;;;16.83;100.00
15487;BME280;7845;53.698;10.078;2023-06-05T00:19:34;102099.94;;;17.02;100.00
15487;BME280;7845;53.698;10.078;2023-06-05T00:22:00;102097.56;;;16.83;100.00
15487;BME280;7845;53.698;10.078;2023-06-05T00:24:25;102095.00;;;16.78;100.00
15487;BME280;7845;53.698;10.078;2023-06-05T00:26:53;102100.53;;;16.49;100.00
15487;BME280;7845;53.698;10.078;2023-06-05T00:29:18;102099.34;;;16.79;100.00
15487;BME280;7845;53.698;10.078;2023-06-05T00:31:45;102090.41;;;16.92;100.00
15487;BME280;7845;53.698;10.078;2023-06-05T00:34:13;102096.69;;;16.84;100.00
15487;BME280;7845;53.698;10.078;2023-06-05T00:36:38;102082.47;;;16.95;100.00
15487;BME280;7845;53.698;10.078;2023-06-05T00:39:09;102077.91;;;17.08;100.00
15487;BME280;7845;53.698;10.078;2023-06-05T00:41:36;102090.34;;;16.98;100.00
15487;BME280;7845;53.698;10.078;2023-06-05T00:44:02;102082.50;;;16.92;100.00
15487;BME280;7845;53.698;10.078;2023-06-05T00:46:27;102071.94;;;16.91;100.00
15487;BME280;7845;53.698;10.078;2023-06-05T00:48:54;102085.25;;;16.83;100.00
15487;BME280;7845;53.698;10.078;2023-06-05T00:51:19;102082.72;;;16.73;100.00
15487;BME280;7845;53.698;10.078;2023-06-05T00:53:47;102074.00;;;16.68;100.00
15487;BME280;7845;53.698;10.078;2023-06-05T00:56:12;102084.53;;;16.71;100.00
15487;BME280;7845;53.698;10.078;2023-06-05T00:58:38;102081.97;;;16.65;100.00
15487;BME280;7845;53.698;10.078;2023-06-05T01:01:06;102082.97;;;16.51;100.00
15487;BME280;7845;53.698;10.078;2023-06-05T01:03:31;102075.06;;;16.50;100.00
15487;BME280;7845;53.698;10.078;2023-06-05T01:05:59;102075.97;;;16.46;100.00
15487;BME280;7845;53.698;10.078;2023-06-05T01:08:37;102075.09;;;16.47;100.00
15487;BME280;7845;53.698;10.078;2023-06-05T01:11:22;102067.25;;;16.42;100.00
15487;BME280;7845;53.698;10.078;2023-06-05T01:14:02;102069.88;;;16.44;100.00
15487;BME280;7845;53.698;10.078;2023-06-05T01:16:32;102061.16;;;16.37;100.00
15487;BME280;7845;53.698;10.078;2023-06-05T01:19:00;102066.41;;;16.37;100.00
15487;BME280;7845;53.698;10.078;2023-06-05T01:21:31;102062.72;;;16.52;100.00
15487;BME280;7845;53.698;10.078;2023-06-05T01:23:58;102054.19;;;16.32;100.00
15487;BME280;7845;53.698;10.078;2023-06-05T01:26:30;102058.53;;;16.34;100.00
15487;BME280;7845;53.698;10.078;2023-06-05T01:29:01;102064.88;;;16.17;100.00
15487;BME280;7845;53.698;10.078;2023-06-05T01:31:30;102060.56;;;16.11;100.00
15487;BME280;7845;53.698;10.078;2023-06-05T01:34:07;102054.63;;;15.88;100.00
15487;BME280;7845;53.698;10.078;2023-06-05T01:36:34;102054.81;;;15.65;100.00
15487;BME280;7845;53.698;10.078;2023-06-05T01:39:06;102052.06;;;15.77;100.00
15487;BME280;7845;53.698;10.078;2023-06-05T01:41:32;102043.31;;;15.80;100.00
15487;BME280;7845;53.698;10.078;2023-06-05T01:43:59;102045.00;;;15.85;100.00
15487;BME280;7845;53.698;10.078;2023-06-05T01:46:29;102051.16;;;15.81;100.00
15487;BME280;7845;53.698;10.078;2023-06-05T01:48:56;102058.34;;;15.64;100.00
15487;BME280;7845;53.698;10.078;2023-06-05T01:51:21;102055.72;;;15.63;100.00
15487;BME280;7845;53.698;10.078;2023-06-05T01:53:47;102054.03;;;15.54;100.00
15487;BME280;7845;53.698;10.078;2023-06-05T01:56:14;102056.59;;;15.65;100.00
15487;BME280;7845;53.698;10.078;2023-06-05T01:58:45;102052.94;;;15.81;100.00
15487;BME280;7845;53.698;10.078;2023-06-05T02:01:12;102046.78;;;15.82;100.00
15487;BME280;7845;53.698;10.078;2023-06-05T02:03:41;102042.53;;;15.67;100.00
15487;BME280;7845;53.698;10.078;2023-06-05T02:06:13;102051.19;;;15.83;100.00
15487;BME280;7845;53.698;10.078;2023-06-05T02:08:39;102047.84;;;15.60;100.00
15487;BME280;7845;53.698;10.078;2023-06-05T02:11:05;102051.22;;;15.77;100.00
15487;BME280;7845;53.698;10.078;2023-06-05T02:13:40;102046.06;;;15.63;100.00
15487;BME280;7845;53.698;10.078;2023-06-05T02:16:08;102036.56;;;15.47;100.00
15487;BME280;7845;53.698;10.078;2023-06-05T02:18:36;102036.59;;;15.36;100.00
15487;BME280;7845;53.698;10.078;2023-06-05T02:21:07;102033.94;;;15.36;100.00
15487;BME280;7845;53.698;10.078;2023-06-05T02:23:34;102037.41;;;15.44;100.00
15487;BME280;7845;53.698;10.078;2023-06-05T02:26:01;102035.59;;;15.54;100.00
15487;BME280;7845;53.698;10.078;2023-06-05T02:28:26;102025.06;;;15.59;100.00
15487;BME280;7845;53.698;10.078;2023-06-05T02:30:53;102030.38;;;15.48;100.00
15487;BME280;7845;53.698;10.078;2023-06-05T02:33:20;102033.91;;;15.50;100.00
15487;BME280;7845;53.698;10.078;2023-06-05T02:35:46;102022.56;;;15.37;100.00
15487;BME280;7845;53.698;10.078;2023-06-05T02:38:14;102019.06;;;15.34;100.00
15487;BME280;7845;53.698;10.078;2023-06-05T02:40:40;102022.63;;;15.28;100.00
15487;BME280;7845;53.698;10.078;2023-06-05T02:43:05;102017.44;;;15.16;100.00
15487;BME280;7845;53.698;10.078;2023-06-05T02:45:33;102022.63;;;15.24;100.00
15487;BME280;7845;53.698;10.078;2023-06-05T02:48:00;102020.00;;;15.24;100.00
15487;BME280;7845;53.698;10.078;2023-06-05T02:50:26;102020.09;;;15.13;100.00
15487;BME280;7845;53.698;10.078;2023-06-05T02:52:52;102016.53;;;15.22;100.00
15487;BME280;7845;53.698;10.078;2023-06-05T02:55:18;102014.75;;;15.25;100.00
15487;BME280;7845;53.698;10.078;2023-06-05T02:57:45;102004.19;;;15.30;100.00
15487;BME280;7845;53.698;10.078;2023-06-05T03:00:14;102008.56;;;15.31;100.00
15487;BME280;7845;53.698;10.078;2023-06-05T03:02:42;102011.22;;;15.26;100.00
15487;BME280;7845;53.698;10.078;2023-06-05T03:05:15;102007.75;;;15.26;100.00
15487;BME280;7845;53.698;10.078;2023-06-05T03:07:41;102003.38;;;15.22;100.00
15487;BME280;7845;53.698;10.078;2023-06-05T03:10:07;102012.22;;;15.10;100.00
15487;BME280;7845;53.698;10.078;2023-06-05T03:12:33;102001.75;;;15.04;100.00
15487;BME280;7845;53.698;10.078;2023-06-05T03:14:59;102004.38;;;15.01;100.00
15487;BME280;7845;53.698;10.078;2023-06-05T03:17:25;102000.03;;;14.97;100.00
15487;BME280;7845;53.698;10.078;2023-06-05T03:19:53;102000.88;;;15.01;100.00
15487;BME280;7845;53.698;10.078;2023-06-05T03:22:18;101999.09;;;15.03;100.00
15487;BME280;7845;53.698;10.078;2023-06-05T03:24:45;101994.66;;;15.17;100.00
15487;BME280;7845;53.698;10.078;2023-06-05T03:27:10;101998.25;;;15.01;100.00
15487;BME280;7845;53.698;10.078;2023-06-05T03:29:36;101991.22;;;15.03;100.00
15487;BME280;7845;53.698;10.078;2023-06-05T03:32:01;102006.03;;;15.19;100.00
15487;BME280;7845;53.698;10.078;2023-06-05T03:34:26;102004.25;;;15.18;100.00
15487;BME280;7845;53.698;10.078;2023-06-05T03:36:52;102005.19;;;15.12;100.00
15487;BME280;7845;53.698;10.078;2023-06-05T03:39:18;102010.47;;;15.11;100.00
15487;BME280;7845;53.698;10.078;2023-06-05T03:41:44;102006.84;;;15.24;100.00
15487;BME280;7845;53.698;10.078;2023-06-05T03:44:10;102002.38;;;15.38;100.00
15487;BME280;7845;53.698;10.078;2023-06-05T03:46:36;101998.81;;;15.48;100.00
15487;BME280;7845;53.698;10.078;2023-06-05T03:49:02;101998.91;;;15.30;100.00
15487;BME280;7845;53.698;10.078;2023-06-05T03:51:33;102000.53;;;15.52;100.00
15487;BME280;7845;53.698;10.078;2023-06-05T03:54:02;102010.22;;;15.48;100.00
15487;BME280;7845;53.698;10.078;2023-06-05T03:56:28;102009.28;;;15.56;100.00
15487;BME280;7845;53.698;10.078;2023-06-05T03:59:03;102008.28;;;15.70;100.00
15487;BME280;7845;53.698;10.078;2023-06-05T04:01:54;102009.78;;;15.97;100.00
15487;BME280;7845;53.698;10.078;2023-06-05T04:04:20;102015.66;;;16.20;100.00
15487;BME280;7845;53.698;10.078;2023-06-05T04:06:46;102013.91;;;16.19;100.00
15487;BME280;7845;53.698;10.078;2023-06-05T04:09:14;102019.81;;;16.42;100.00
15487;BME280;7845;53.698;10.078;2023-06-05T04:11:40;102013.31;;;16.71;100.00
15487;BME280;7845;53.698;10.078;2023-06-05T04:14:08;102007.06;;;16.79;100.00
15487;BME280;7845;53.698;10.078;2023-06-05T04:16:35;102008.69;;;16.89;100.00
15487;BME280;7845;53.698;10.078;2023-06-05T04:19:04;102014.78;;;16.21;100.00
15487;BME280;7845;53.698;10.078;2023-06-05T04:21:36;102024.47;;;16.18;100.00
15487;BME280;7845;53.698;10.078;2023-06-05T04:24:05;102028.97;;;16.08;100.00
15487;BME280;7845;53.698;10.078;2023-06-05T04:26:36;102027.28;;;16.02;100.00
15487;BME280;7845;53.698;10.078;2023-06-05T04:29:04;102026.38;;;16.81;100.00
15487;BME280;7845;53.698;10.078;2023-06-05T04:31:35;102020.38;;;17.85;100.00
15487;BME280;7845;53.698;10.078;2023-06-05T04:34:00;101990.09;;;19.26;100.00
15487;BME280;7845;53.698;10.078;2023-06-05T04:36:27;101990.13;;;18.88;100.00
15487;BME280;7845;53.698;10.078;2023-06-05T04:38:53;101969.31;;;21.02;99.49
15487;BME280;7845;53.698;10.078;2023-06-05T04:41:19;101960.84;;;20.89;93.53
15487;BME280;7845;53.698;10.078;2023-06-05T04:43:47;101944.53;;;22.05;84.83
15487;BME280;7845;53.698;10.078;2023-06-05T04:46:12;101930.81;;;21.92;82.84
15487;BME280;7845;53.698;10.078;2023-06-05T04:48:38;101943.38;;;21.89;83.14
15487;BME280;7845;53.698;10.078;2023-06-05T04:51:03;101963.75;;;20.53;90.53
15487;BME280;7845;53.698;10.078;2023-06-05T04:53:32;101995.09;;;18.63;100.00
15487;BME280;7845;53.698;10.078;2023-06-05T04:55:59;101992.41;;;19.05;100.00
15487;BME280;7845;53.698;10.078;2023-06-05T04:58:27;101991.31;;;18.75;100.00
15487;BME280;7845;53.698;10.078;2023-06-05T05:00:52;102009.63;;;17.43;100.00
15487;BME280;7845;53.698;10.078;2023-06-05T05:03:18;102022.78;;;17.98;100.00
15487;BME280;7845;53.698;10.078;2023-06-05T05:05:43;102043.56;;;16.38;100.00
15487;BME280;7845;53.698;10.078;2023-06-05T05:08:09;102032.09;;;17.70;100.00
15487;BME280;7845;53.698;10.078;2023-06-05T05:10:34;102023.66;;;17.99;100.00
15487;BME280;7845;53.698;10.078;2023-06-05T05:13:00;102023.28;;;18.18;100.00
15487;BME280;7845;53.698;10.078;2023-06-05T05:15:28;102015.53;;;18.55;100.00
15487;BME280;7845;53.698;10.078;2023-06-05T05:17:56;102021.59;;;17.67;100.00
15487;BME280;7845;53.698;10.078;2023-06-05T05:20:22;102022.06;;;17.90;100.00
15487;BME280;7845;53.698;10.078;2023-06-05T05:22:49;102024.78;;;17.86;100.00
15487;BME280;7845;53.698;10.078;2023-06-05T05:25:16;102021.94;;;17.96;100.00
15487;BME280;7845;53.698;10.078;2023-06-05T05:27:41;102047.88;;;17.17;100.00
15487;BME280;7845;53.698;10.078;2023-06-05T05:30:07;102054.31;;;16.94;100.00
15487;BME280;7845;53.698;10.078;2023-06-05T05:32:33;102035.56;;;17.72;100.00
15487;BME280;7845;53.698;10.078;2023-06-05T05:34:58;102029.41;;;18.20;100.00
15487;BME280;7845;53.698;10.078;2023-06-05T05:37:24;102027.34;;;18.36;100.00
15487;BME280;7845;53.698;10.078;2023-06-05T05:39:52;102026.34;;;18.42;100.00
15487;BME280;7845;53.698;10.078;2023-06-05T05:42:17;102044.66;;;17.56;100.00
15487;BME280;7845;53.698;10.078;2023-06-05T05:44:43;102036.75;;;18.06;100.00
15487;BME280;7845;53.698;10.078;2023-06-05T05:47:10;102034.06;;;17.59;100.00
15487;BME280;7845;53.698;10.078;2023-06-05T05:49:36;102032.75;;;18.30;100.00
15487;BME280;7845;53.698;10.078;2023-06-05T05:52:03;102037.00;;;18.37;100.00
15487;BME280;7845;53.698;10.078;2023-06-05T05:54:28;102027.88;;;18.55;100.00
15487;BME280;7845;53.698;10.078;2023-06-05T05:56:55;102039.97;;;17.72;100.00
15487;BME280;7845;53.698;10.078;2023-06-05T05:59:21;102041.63;;;18.26;100.00
15487;BME280;7845;53.698;10.078;2023-06-05T06:01:48;102041.09;;;18.07;100.00
15487;BME280;7845;53.698;10.078;2023-06-05T06:04:16;102046.38;;;18.09;100.00
15487;BME280;7845;53.698;10.078;2023-06-05T06:06:41;102039.44;;;18.51;100.00
15487;BME280;7845;53.698;10.078;2023-06-05T06:09:07;102036.66;;;18.57;100.00
15487;BME280;7845;53.698;10.078;2023-06-05T06:11:54;102038.81;;;18.79;100.00
15487;BME280;7845;53.698;10.078;2023-06-05T06:14:22;102041.47;;;18.79;100.00
15487;BME280;7845;53.698;10.078;2023-06-05T06:16:50;102028.50;;;19.07;100.00
15487;BME280;7845;53.698;10.078;2023-06-05T06:19:19;102038.69;;;19.24;100.00
15487;BME280;7845;53.698;10.078;2023-06-05T06:21:48;102032.38;;;19.29;100.00
15487;BME280;7845;53.698;10.078;2023-06-05T06:24:15;102038.16;;;19.48;100.00
15487;BME280;7845;53.698;10.078;2023-06-05T06:26:42;102039.91;;;19.48;100.00
15487;BME280;7845;53.698;10.078;2023-06-05T06:29:09;102048.13;;;18.97;100.00
15487;BME280;7845;53.698;10.078;2023-06-05T06:31:34;102046.53;;;18.90;100.00
15487;BME280;7845;53.698;10.078;2023-06-05T06:34:01;102046.91;;;19.12;100.00
15487;BME280;7845;53.698;10.078;2023-06-05T06:36:26;102048.00;;;19.42;100.00
15487;BME280;7845;53.698;10.078;2023-06-05T06:38:52;102052.72;;;18.89;100.00
15487;BME280;7845;53.698;10.078;2023-06-05T06:41:18;102038.69;;;19.24;100.00
15487;BME280;7845;53.698;10.078;2023-06-05T06:43:43;102043.81;;;19.31;100.00
15487;BME280;7845;53.698;10.078;2023-06-05T06:46:09;102038.66;;;19.62;100.00
15487;BME280;7845;53.698;10.078;2023-06-05T06:48:34;102031.06;;;19.49;100.00
15487;BME280;7845;53.698;10.078;2023-06-05T06:51:00;102037.97;;;19.56;100.00
15487;BME280;7845;53.698;10.078;2023-06-05T06:53:25;102043.03;;;19.26;100.00
15487;BME280;7845;53.698;10.078;2023-06-05T06:55:50;102039.88;;;19.84;100.00
15487;BME280;7845;53.698;10.078;2023-06-05T06:58:16;102043.38;;;19.51;100.00
15487;BME280;7845;53.698;10.078;2023-06-05T07:00:43;102039.72;;;19.91;100.00
15487;BME280;7845;53.698;10.078;2023-06-05T07:03:08;102037.72;;;20.00;100.00
15487;BME280;7845;53.698;10.078;2023-06-05T07:05:34;102043.13;;;19.96;100.00
15487;BME280;7845;53.698;10.078;2023-06-05T07:08:01;102042.03;;;19.69;100.00
15487;BME280;7845;53.698;10.078;2023-06-05T07:10:29;102027.91;;;20.04;100.00
15487;BME280;7845;53.698;10.078;2023-06-05T07:12:55;102024.91;;;20.48;100.00
15487;BME280;7845;53.698;10.078;2023-06-05T07:15:20;102024.25;;;20.71;100.00
15487;BME280;7845;53.698;10.078;2023-06-05T07:17:46;102023.81;;;20.23;100.00
15487;BME280;7845;53.698;10.078;2023-06-05T07:20:11;102026.69;;;20.48;100.00
15487;BME280;7845;53.698;10.078;2023-06-05T07:22:42;102019.63;;;20.47;100.00
15487;BME280;7845;53.698;10.078;2023-06-05T07:25:09;102038.03;;;20.53;100.00
15487;BME280;7845;53.698;10.078;2023-06-05T07:27:34;102025.56;;;20.56;100.00
15487;BME280;7845;53.698;10.078;2023-06-05T07:30:01;102016.44;;;20.94;100.00
15487;BME280;7845;53.698;10.078;2023-06-05T07:32:27;102019.16;;;20.92;100.00
15487;BME280;7845;53.698;10.078;2023-06-05T07:34:53;102021.41;;;20.77;100.00
15487;BME280;7845;53.698;10.078;2023-06-05T07:37:20;102023.44;;;20.38;100.00
15487;BME280;7845;53.698;10.078;2023-06-05T07:39:45;102013.03;;;20.90;100.00
15487;BME280;7845;53.698;10.078;2023-06-05T07:42:12;102014.34;;;21.05;100.00
15487;BME280;7845;53.698;10.078;2023-06-05T07:44:38;102002.59;;;21.14;100.00
15487;BME280;7845;53.698;10.078;2023-06-05T07:47:06;102012.25;;;21.16;100.00
15487;BME280;7845;53.698;10.078;2023-06-05T07:49:35;102013.22;;;20.84;100.00
15487;BME280;7845;53.698;10.078;2023-06-05T07:52:00;102007.53;;;20.96;100.00
15487;BME280;7845;53.698;10.078;2023-06-05T07:54:26;101992.47;;;21.26;100.00
15487;BME280;7845;53.698;10.078;2023-06-05T07:56:51;102000.91;;;21.11;100.00
15487;BME280;7845;53.698;10.078;2023-06-05T07:59:17;101990.13;;;21.42;100.00
15487;BME280;7845;53.698;10.078;2023-06-05T08:01:51;101993.78;;;21.39;100.00
15487;BME280;7845;53.698;10.078;2023-06-05T08:04:17;102008.81;;;21.13;100.00
15487;BME280;7845;53.698;10.078;2023-06-05T08:06:44;102019.00;;;20.68;100.00
15487;BME280;7845;53.698;10.078;2023-06-05T08:09:10;102014.44;;;21.30;100.00
15487;BME280;7845;53.698;10.078;2023-06-05T08:11:40;102001.66;;;21.42;100.00
15487;BME280;7845;53.698;10.078;2023-06-05T08:14:07;102000.03;;;21.65;100.00
15487;BME280;7845;53.698;10.078;2023-06-05T08:16:34;101991.09;;;21.66;100.00
15487;BME280;7845;53.698;10.078;2023-06-05T08:19:01;101988.31;;;21.70;100.00
15487;BME280;7845;53.698;10.078;2023-06-05T08:21:27;101982.50;;;21.59;100.00
15487;BME280;7845;53.698;10.078;2023-06-05T08:23:52;101985.75;;;21.93;100.00
15487;BME280;7845;53.698;10.078;2023-06-05T08:26:21;101975.69;;;21.50;100.00
15487;BME280;7845;53.698;10.078;2023-06-05T08:28:47;101973.03;;;21.77;100.00
15487;BME280;7845;53.698;10.078;2023-06-05T08:31:13;101978.13;;;22.08;99.18
15487;BME280;7845;53.698;10.078;2023-06-05T08:33:42;101973.03;;;22.01;98.69
15487;BME280;7845;53.698;10.078;2023-06-05T08:36:08;101974.00;;;21.99;97.49
15487;BME280;7845;53.698;10.078;2023-06-05T08:38:34;101965.66;;;22.10;95.74
15487;BME280;7845;53.698;10.078;2023-06-05T08:41:01;101966.03;;;22.24;93.93
15487;BME280;7845;53.698;10.078;2023-06-05T08:43:28;101971.03;;;22.08;98.06
15487;BME280;7845;53.698;10.078;2023-06-05T08:45:55;101961.16;;;22.35;93.65
15487;BME280;7845;53.698;10.078;2023-06-05T08:48:21;101958.34;;;22.39;92.41
15487;BME280;7845;53.698;10.078;2023-06-05T08:50:48;101951.56;;;22.31;91.40
15487;BME280;7845;53.698;10.078;2023-06-05T08:53:16;101962.16;;;22.32;94.89
15487;BME280;7845;53.698;10.078;2023-06-05T08:55:44;101953.94;;;22.38;95.41
15487;BME280;7845;53.698;10.078;2023-06-05T08:58:12;101952.81;;;22.44;94.38
15487;BME280;7845;53.698;10.078;2023-06-05T09:00:38;101952.31;;;22.57;92.99
15487;BME280;7845;53.698;10.078;2023-06-05T09:03:03;101955.38;;;22.47;94.50
15487;BME280;7845;53.698;10.078;2023-06-05T09:05:29;101945.72;;;22.68;92.38
15487;BME280;7845;53.698;10.078;2023-06-05T09:08:00;101945.78;;;22.43;93.46
15487;BME280;7845;53.698;10.078;2023-06-05T09:10:27;101951.25;;;22.61;93.90
15487;BME280;7845;53.698;10.078;2023-06-05T09:12:58;101937.50;;;22.95;89.99
15487;BME280;7845;53.698;10.078;2023-06-05T09:15:28;101939.41;;;22.47;91.14
15487;BME280;7845;53.698;10.078;2023-06-05T09:18:04;101936.81;;;22.69;88.86
15487;BME280;7845;53.698;10.078;2023-06-05T09:20:33;101935.16;;;22.66;90.29
15487;BME280;7845;53.698;10.078;2023-06-05T09:23:02;101937.38;;;22.98;89.46
15487;BME280;7845;53.698;10.078;2023-06-05T09:25:45;101929.56;;;22.94;87.61
15487;BME280;7845;53.698;10.078;2023-06-05T09:28:14;101939.47;;;22.69;90.38
15487;BME280;7845;53.698;10.078;2023-06-05T09:30:53;101941.34;;;22.67;91.57
15487;BME280;7845;53.698;10.078;2023-06-05T09:33:20;101938.69;;;22.88;90.62
15487;BME280;7845;53.698;10.078;2023-06-05T09:35:46;101932.53;;;23.30;87.76
15487;BME280;7845;53.698;10.078;2023-06-05T09:38:26;101933.44;;;23.08;86.73
15487;BME280;7845;53.698;10.078;2023-06-05T09:41:13;101926.19;;;22.90;85.06
15487;BME280;7845;53.698;10.078;2023-06-05T09:43:48;101926.41;;;23.28;83.63
15487;BME280;7845;53.698;10.078;2023-06-05T09:46:17;101918.47;;;23.26;81.57
15487;BME280;7845;53.698;10.078;2023-06-05T09:48:52;101930.06;;;23.25;82.87
15487;BME280;7845;53.698;10.078;2023-06-05T09:51:19;101923.50;;;23.12;82.92
15487;BME280;7845;53.698;10.078;2023-06-05T09:53:47;101926.38;;;23.07;84.37
15487;BME280;7845;53.698;10.078;2023-06-05T09:56:15;101931.41;;;23.35;83.25
15487;BME280;7845;53.698;10.078;2023-06-05T09:58:50;101918.53;;;23.66;82.48
15487;BME280;7845;53.698;10.078;2023-06-05T10:01:19;101916.34;;;23.56;82.35
15487;BME280;7845;53.698;10.078;2023-06-05T10:03:54;101915.94;;;23.65;84.33
15487;BME280;7845;53.698;10.078;2023-06-05T10:06:21;101917.59;;;23.67;82.70
15487;BME280;7845;53.698;10.078;2023-06-05T10:08:52;101913.75;;;23.93;80.64
15487;BME280;7845;53.698;10.078;2023-06-05T10:11:19;101910.09;;;24.16;79.95
15487;BME280;7845;53.698;10.078;2023-06-05T10:13:47;101925.00;;;23.61;85.83
15487;BME280;7845;53.698;10.078;2023-06-05T10:16:14;101914.72;;;24.12;81.34
15487;BME280;7845;53.698;10.078;2023-06-05T10:18:40;101908.53;;;23.92;80.88
15487;BME280;7845;53.698;10.078;2023-06-05T10:21:06;101900.72;;;24.26;79.56
15487;BME280;7845;53.698;10.078;2023-06-05T10:23:32;101900.00;;;24.02;78.46
15487;BME280;7845;53.698;10.078;2023-06-05T10:25:58;101894.22;;;24.32;77.75
15487;BME280;7845;53.698;10.078;2023-06-05T10:31:17;101890.63;;;24.51;74.48
15487;BME280;7845;53.698;10.078;2023-06-05T10:33:51;101880.19;;;24.28;74.97
15487;BME280;7845;53.698;10.078;2023-06-05T10:36:52;101877.19;;;24.53;74.97
15487;BME280;7845;53.698;10.078;2023-06-05T10:39:22;101886.16;;;24.52;75.33
15487;BME280;7845;53.698;10.078;2023-06-05T10:41:52;101880.72;;;24.72;74.43
15487;BME280;7845;53.698;10.078;2023-06-05T10:44:17;101882.91;;;24.45;73.69
15487;BME280;7845;53.698;10.078;2023-06-05T10:46:43;101875.22;;;24.75;72.66
15487;BME280;7845;53.698;10.078;2023-06-05T10:49:15;101874.97;;;24.81;72.98
15487;BME280;7845;53.698;10.078;2023-06-05T10:51:43;101865.25;;;25.14;71.97
15487;BME280;7845;53.698;10.078;2023-06-05T10:57:05;101866.66;;;25.04;70.72
15487;BME280;7845;53.698;10.078;2023-06-05T10:59:39;101864.84;;;25.05;71.36
15487;BME280;7845;53.698;10.078;2023-06-05T11:07:20;101846.59;;;25.30;69.13
15487;BME280;7845;53.698;10.078;2023-06-05T11:15:14;101834.16;;;25.63;67.39
15487;BME280;7845;53.698;10.078;2023-06-05T11:17:42;101830.06;;;25.73;66.11
15487;BME280;7845;53.698;10.078;2023-06-05T11:25:26;101829.56;;;25.82;64.73
15487;BME280;7845;53.698;10.078;2023-06-05T11:30:32;101827.13;;;26.42;64.58
15487;BME280;7845;53.698;10.078;2023-06-05T11:33:17;101815.38;;;26.29;62.55
15487;BME280;7845;53.698;10.078;2023-06-05T11:35:46;101816.09;;;26.32;63.03
15487;BME280;7845;53.698;10.078;2023-06-05T11:38:15;101815.50;;;26.43;62.34
15487;BME280;7845;53.698;10.078;2023-06-05T11:40:41;101816.13;;;26.93;62.74
15487;BME280;7845;53.698;10.078;2023-06-05T11:43:09;101803.94;;;27.32;62.46
15487;BME280;7845;53.698;10.078;2023-06-05T11:45:37;101806.19;;;27.10;59.85
15487;BME280;7845;53.698;10.078;2023-06-05T11:48:11;101800.75;;;27.11;59.06
15487;BME280;7845;53.698;10.078;2023-06-05T11:50:37;101807.25;;;27.07;60.04
15487;BME280;7845;53.698;10.078;2023-06-05T11:53:10;101785.78;;;27.07;58.10
15487;BME280;7845;53.698;10.078;2023-06-05T11:55:37;101790.84;;;27.41;58.43
15487;BME280;7845;53.698;10.078;2023-06-05T11:58:29;101788.47;;;27.79;57.33
15487;BME280;7845;53.698;10.078;2023-06-05T12:01:08;101781.19;;;27.53;54.76
15487;BME280;7845;53.698;10.078;2023-06-05T12:03:38;101782.78;;;27.98;56.36
15487;BME280;7845;53.698;10.078;2023-06-05T12:06:04;101777.13;;;28.43;54.31
15487;BME280;7845;53.698;10.078;2023-06-05T12:08:31;101768.00;;;28.19;52.07
15487;BME280;7845;53.698;10.078;2023-06-05T12:10:59;101763.44;;;28.34;50.82
15487;BME280;7845;53.698;10.078;2023-06-05T12:13:50;101767.69;;;28.77;51.63
15487;BME280;7845;53.698;10.078;2023-06-05T12:16:39;101759.75;;;28.62;49.46
15487;BME280;7845;53.698;10.078;2023-06-05T12:19:16;101764.06;;;28.25;50.53
15487;BME280;7845;53.698;10.078;2023-06-05T12:21:44;101765.59;;;28.15;51.77
15487;BME280;7845;53.698;10.078;2023-06-05T12:24:10;101766.50;;;28.01;52.02
15487;BME280;7845;53.698;10.078;2023-06-05T12:27:05;101754.31;;;28.36;49.47
15487;BME280;7845;53.698;10.078;2023-06-05T12:29:37;101746.75;;;27.88;48.58
15487;BME280;7845;53.698;10.078;2023-06-05T12:32:23;101757.75;;;28.12;50.32
15487;BME280;7845;53.698;10.078;2023-06-05T12:34:50;101758.91;;;27.93;51.48
15487;BME280;7845;53.698;10.078;2023-06-05T12:37:27;101761.38;;;28.51;50.78
15487;BME280;7845;53.698;10.078;2023-06-05T12:39:57;101764.28;;;27.93;51.43
15487;BME280;7845;53.698;10.078;2023-06-05T12:42:24;101769.16;;;28.01;53.10
15487;BME280;7845;53.698;10.078;2023-06-05T12:44:49;101775.75;;;27.25;53.53
15487;BME280;7845;53.698;10.078;2023-06-05T12:47:16;101771.81;;;27.74;52.59
15487;BME280;7845;53.698;10.078;2023-06-05T12:49:42;101775.53;;;27.86;54.95
15487;BME280;7845;53.698;10.078;2023-06-05T12:52:08;101762.16;;;28.13;53.92
15487;BME280;7845;53.698;10.078;2023-06-05T12:54:35;101755.19;;;27.82;52.27
15487;BME280;7845;53.698;10.078;2023-06-05T12:57:01;101762.28;;;27.69;53.59
15487;BME280;7845;53.698;10.078;2023-06-05T12:59:27;101745.06;;;28.14;50.13
15487;BME280;7845;53.698;10.078;2023-06-05T13:01:55;101752.19;;;28.41;51.30
15487;BME280;7845;53.698;10.078;2023-06-05T13:04:20;101735.97;;;28.43;49.37
15487;BME280;7845;53.698;10.078;2023-06-05T13:06:46;101737.03;;;28.67;48.96
15487;BME280;7845;53.698;10.078;2023-06-05T13:09:12;101745.41;;;28.36;49.50
15487;BME280;7845;53.698;10.078;2023-06-05T13:11:37;101745.50;;;28.61;49.02